Terminal Aerodrome Forecast
Issued by NWS

Home | Current Version | Previous Version | Text Only | Print | Product List | Glossary On
Versions: 1 2 3 4 5 6 7 8 9 10 11 12 13 14 15 16 17 18 19
000
FTUS42 KILM 051722
TAFCRE
TAF
KCRE 051722Z 0518/0618 31010G20KT P6SM VCSH BKN040 BKN080
      TEMPO 0519/0523 6SM SHRA BKN030
     FM060000 31006KT P6SM -SHRA BKN040 BKN080
     FM061300 30009KT P6SM VCSH BKN030=

USA.gov is the U.S. government's official web portal to all federal, state and local government web resources and services.